createdAt,value
2023-02-26T00:01:44.850Z,99232.09
2023-02-26T00:04:13.422Z,99233.03
2023-02-26T00:06:55.271Z,99235.44
2023-02-26T00:09:29.592Z,99240.63
2023-02-26T00:11:58.662Z,99242.31
2023-02-26T00:14:27.582Z,99238.75
2023-02-26T00:17:09.851Z,99243.25
2023-02-26T00:19:39.147Z,99251.06
2023-02-26T00:22:08.309Z,99245.25
2023-02-26T00:24:38.125Z,99248.59
2023-02-26T00:27:06.453Z,99248.19
2023-02-26T00:29:35.619Z,99249.25
2023-02-26T00:32:04.774Z,99252.81
2023-02-26T00:34:33.719Z,99256.84
2023-02-26T00:37:14.891Z,99259.56
2023-02-26T00:39:53.298Z,99262.78
2023-02-26T00:42:22.579Z,99266.44
2023-02-26T00:44:51.394Z,99267.38
2023-02-26T00:47:30.386Z,99274.03
2023-02-26T00:50:10.711Z,99273.53
2023-02-26T00:52:47.325Z,99276.59
2023-02-26T00:55:18.092Z,99269.94
2023-02-26T00:57:46.439Z,99269.72
2023-02-26T01:00:16.340Z,99277.53
2023-02-26T01:02:45.619Z,99290.25
2023-02-26T01:05:15.517Z,99279.91
2023-02-26T01:07:49.304Z,99282.78
2023-02-26T01:10:21.156Z,99281.91
2023-02-26T01:12:49.945Z,99281.56
2023-02-26T01:15:19.096Z,99289.66
2023-02-26T01:17:51.894Z,99300.31
2023-02-26T01:20:24.261Z,99307.19
2023-02-26T01:22:56.332Z,99309.28
2023-02-26T01:25:30.399Z,99308.34
2023-02-26T01:27:59.308Z,99311.81
2023-02-26T01:30:28.701Z,99318.28
2023-02-26T01:33:04.792Z,99317.47
2023-02-26T01:35:44.299Z,99319.84
2023-02-26T01:38:22.048Z,99331.31
2023-02-26T01:41:23.622Z,99332.38
2023-02-26T01:44:01.973Z,99338.25
2023-02-26T01:46:38.237Z,99338.03
2023-02-26T01:49:13.751Z,99334.97
2023-02-26T01:51:49.345Z,99348.59
2023-02-26T01:54:20.805Z,99347.28
2023-02-26T01:56:57.184Z,99347.06
2023-02-26T01:59:25.721Z,99352.38
2023-02-26T02:01:58.214Z,99357.03
2023-02-26T02:04:27.753Z,99360.59
2023-02-26T02:06:56.716Z,99361.41
2023-02-26T02:09:25.457Z,99369.00
2023-02-26T02:12:22.511Z,99368.28
2023-02-26T02:15:02.747Z,99376.16
2023-02-26T02:17:40.043Z,99378.50
2023-02-26T02:20:44.078Z,99386.81
2023-02-26T02:23:17.354Z,99393.41
2023-02-26T02:26:16.351Z,99387.03
2023-02-26T02:29:03.213Z,99402.16
2023-02-26T02:31:37.154Z,99404.69
2023-02-26T02:34:14.042Z,99399.56
2023-02-26T02:36:48.650Z,99407.38
2023-02-26T02:39:21.680Z,99399.78
2023-02-26T02:41:54.969Z,99411.25
2023-02-26T02:44:27.395Z,99412.59
2023-02-26T02:47:00.354Z,99415.81
2023-02-26T02:49:33.340Z,99418.44
2023-02-26T02:52:06.958Z,99421.13
2023-02-26T02:54:42.724Z,99431.78
2023-02-26T02:57:17.897Z,99420.31
2023-02-26T02:59:49.492Z,99427.09
2023-02-26T03:05:01.230Z,99431.25
2023-02-26T03:07:33.441Z,99441.47
2023-02-26T03:10:02.206Z,99449.63
2023-02-26T03:12:33.880Z,99460.03
2023-02-26T03:15:04.071Z,99456.78
2023-02-26T03:17:38.325Z,99463.16
2023-02-26T03:20:18.514Z,99463.03
2023-02-26T03:22:54.836Z,99474.41
2023-02-26T03:25:28.024Z,99467.34
2023-02-26T03:28:02.525Z,99484.09
2023-02-26T03:30:38.665Z,99479.00
2023-02-26T03:33:15.499Z,99488.91
2023-02-26T03:35:51.960Z,99495.06
2023-02-26T03:38:26.660Z,99493.41
2023-02-26T03:41:00.891Z,99509.22
2023-02-26T03:43:33.495Z,99506.31
2023-02-26T03:46:06.642Z,99515.88
2023-02-26T03:48:37.373Z,99514.03
2023-02-26T03:51:12.436Z,99501.22
2023-02-26T03:53:45.754Z,99511.94
2023-02-26T03:56:20.000Z,99515.06
2023-02-26T03:58:48.669Z,99528.22
2023-02-26T04:01:22.341Z,99525.91
2023-02-26T04:03:59.485Z,99531.13
2023-02-26T04:06:30.289Z,99531.53
2023-02-26T04:08:59.598Z,99536.84
2023-02-26T04:11:29.397Z,99544.69
2023-02-26T04:13:58.304Z,99535.47
2023-02-26T04:16:27.321Z,99552.56
2023-02-26T04:18:56.411Z,99542.16
2023-02-26T04:21:25.609Z,99553.63
2023-02-26T04:23:55.729Z,99561.75
2023-02-26T04:26:24.732Z,99566.34
2023-02-26T04:28:53.617Z,99556.13
2023-02-26T04:31:22.410Z,99553.72
2023-02-26T04:33:51.510Z,99562.38
2023-02-26T04:36:20.322Z,99570.06
2023-02-26T04:38:49.192Z,99563.50
2023-02-26T04:41:19.520Z,99570.50
2023-02-26T04:43:48.311Z,99568.09
2023-02-26T04:46:17.015Z,99579.03
2023-02-26T04:48:46.241Z,99587.38
2023-02-26T04:51:14.809Z,99579.25
2023-02-26T04:53:43.297Z,99577.78
2023-02-26T04:56:12.079Z,99580.16
2023-02-26T04:58:42.220Z,99582.03
2023-02-26T05:01:11.253Z,99596.75
2023-02-26T05:03:39.889Z,99595.59
2023-02-26T05:06:09.108Z,99593.59
2023-02-26T05:08:41.869Z,99607.44
2023-02-26T05:11:10.563Z,99594.41
2023-02-26T05:13:39.460Z,99600.88
2023-02-26T05:16:10.145Z,99612.38
2023-02-26T05:18:39.512Z,99607.34
2023-02-26T05:21:08.304Z,99612.56
2023-02-26T05:23:37.204Z,99610.38
2023-02-26T05:26:06.006Z,99622.66
2023-02-26T05:28:37.972Z,99619.00
2023-02-26T05:31:07.379Z,99629.13
2023-02-26T05:33:37.588Z,99637.53
2023-02-26T05:36:07.418Z,99647.75
2023-02-26T05:38:36.418Z,99642.34
2023-02-26T05:41:05.808Z,99652.97
2023-02-26T05:43:35.016Z,99651.09
2023-02-26T05:46:03.709Z,99661.72
2023-02-26T05:48:32.300Z,99657.63
2023-02-26T05:51:03.137Z,99657.84
2023-02-26T05:53:31.712Z,99656.91
2023-02-26T05:56:00.516Z,99667.47
2023-02-26T05:58:29.193Z,99680.75
2023-02-26T06:00:59.735Z,99694.63
2023-02-26T06:03:28.339Z,99682.16
2023-02-26T06:05:57.215Z,99699.25
2023-02-26T06:08:27.544Z,99699.78
2023-02-26T06:10:56.796Z,99692.56
2023-02-26T06:13:25.529Z,99699.84
2023-02-26T06:15:54.313Z,99699.72
2023-02-26T06:18:22.942Z,99712.47
2023-02-26T06:20:51.624Z,99725.28
2023-02-26T06:23:20.427Z,99727.03
2023-02-26T06:25:52.881Z,99739.06
2023-02-26T06:28:21.897Z,99728.84
2023-02-26T06:30:50.672Z,99743.88
2023-02-26T06:33:19.475Z,99740.25
2023-02-26T06:35:48.678Z,99749.09
2023-02-26T06:38:17.599Z,99756.91
2023-02-26T06:40:47.382Z,99765.25
2023-02-26T06:43:17.712Z,99766.19
2023-02-26T06:45:48.912Z,99755.03
2023-02-26T06:48:17.670Z,99766.00
2023-02-26T06:50:46.239Z,99773.41
2023-02-26T06:53:14.834Z,99781.63
2023-02-26T06:55:46.182Z,99775.81
2023-02-26T06:58:16.832Z,99785.84
2023-02-26T07:00:45.975Z,99792.00
2023-02-26T07:03:16.369Z,99787.91
2023-02-26T07:05:45.755Z,99793.59
2023-02-26T07:08:14.974Z,99793.66
2023-02-26T07:10:47.851Z,99801.28
2023-02-26T07:13:17.978Z,99798.88
2023-02-26T07:15:46.658Z,99810.97
2023-02-26T07:18:15.602Z,99811.84
2023-02-26T07:20:45.382Z,99824.19
2023-02-26T07:23:14.067Z,99821.94
2023-02-26T07:25:42.864Z,99832.19
2023-02-26T07:28:11.650Z,99828.63
2023-02-26T07:30:42.722Z,99823.56
2023-02-26T07:33:13.566Z,99843.56
2023-02-26T07:35:42.954Z,99847.50
2023-02-26T07:38:11.743Z,99851.19
2023-02-26T07:40:40.433Z,99864.59
2023-02-26T07:43:09.130Z,99861.72
2023-02-26T07:45:37.915Z,99859.00
2023-02-26T07:48:07.880Z,99860.88
2023-02-26T07:50:36.637Z,99868.22
2023-02-26T07:53:05.424Z,99870.28
2023-02-26T07:55:34.107Z,99883.00
2023-02-26T07:58:02.698Z,99879.47
2023-02-26T08:00:31.404Z,99892.50
2023-02-26T08:03:00.296Z,99891.56
2023-02-26T08:05:30.616Z,99892.50
2023-02-26T08:07:59.188Z,99900.31
2023-02-26T08:10:27.800Z,99900.13
2023-02-26T08:12:56.476Z,99901.41
2023-02-26T08:15:25.090Z,99905.63
2023-02-26T08:17:54.467Z,99903.00
2023-02-26T08:20:23.187Z,99904.03
2023-02-26T08:22:54.216Z,99921.16
2023-02-26T08:25:22.786Z,99918.34
2023-02-26T08:27:51.387Z,99927.09
2023-02-26T08:30:20.282Z,99920.03
2023-02-26T08:32:50.096Z,99904.03
2023-02-26T08:35:18.811Z,99929.47
2023-02-26T08:37:47.575Z,99923.34
2023-02-26T08:40:17.865Z,99924.06
2023-02-26T08:42:46.381Z,99927.22
2023-02-26T08:45:14.996Z,99945.69
2023-02-26T08:47:55.732Z,99945.69
2023-02-26T08:50:25.827Z,99950.41
2023-02-26T08:52:54.692Z,99952.72
2023-02-26T08:55:24.998Z,99961.47
2023-02-26T08:57:53.582Z,99958.31
2023-02-26T09:00:22.771Z,99967.09
2023-02-26T09:02:51.452Z,99976.22
2023-02-26T09:05:20.353Z,99973.97
2023-02-26T09:07:49.188Z,99984.59
2023-02-26T09:10:18.450Z,99983.66
2023-02-26T09:12:48.406Z,99999.50
2023-02-26T09:15:16.985Z,99994.28
2023-02-26T09:17:45.774Z,99997.38
2023-02-26T09:20:15.673Z,100005.75
2023-02-26T09:22:44.178Z,100005.34
2023-02-26T09:25:13.387Z,100009.72
2023-02-26T09:27:41.826Z,100001.88
2023-02-26T09:30:13.443Z,100018.19
2023-02-26T09:32:41.981Z,100023.50
2023-02-26T09:35:11.767Z,100025.94
2023-02-26T09:37:40.451Z,100026.31
2023-02-26T09:40:13.427Z,100032.16
2023-02-26T09:42:59.830Z,100041.09
2023-02-26T09:45:34.776Z,100037.19
2023-02-26T09:48:07.376Z,100053.88
2023-02-26T09:50:42.414Z,100057.63
2023-02-26T09:53:18.235Z,100061.72
2023-02-26T09:55:48.205Z,100073.06
2023-02-26T09:58:22.540Z,100073.81
2023-02-26T10:01:00.302Z,100074.63
2023-02-26T10:03:33.635Z,100082.38
2023-02-26T10:06:25.037Z,100077.13
2023-02-26T10:09:07.637Z,100076.94
2023-02-26T10:11:47.617Z,100079.56
2023-02-26T10:14:24.618Z,100076.00
2023-02-26T10:16:58.455Z,100086.34
2023-02-26T10:19:31.314Z,100087.09
2023-02-26T10:22:04.966Z,100089.44
2023-02-26T10:24:41.717Z,100090.81
2023-02-26T10:27:17.607Z,100098.66
2023-02-26T10:29:52.669Z,100105.81
2023-02-26T10:32:32.173Z,100094.88
2023-02-26T10:35:04.286Z,100107.59
2023-02-26T10:37:45.580Z,100106.41
2023-02-26T10:40:19.477Z,100104.25
2023-02-26T10:42:52.718Z,100120.47
2023-02-26T10:45:38.751Z,100121.94
2023-02-26T10:48:19.048Z,100115.03
2023-02-26T10:50:51.838Z,100125.25
2023-02-26T10:53:21.895Z,100123.56
2023-02-26T10:55:54.065Z,100121.69
2023-02-26T10:58:25.365Z,100122.75
2023-02-26T11:00:56.068Z,100128.38
2023-02-26T11:03:33.424Z,100130.88
2023-02-26T11:06:03.935Z,100135.34
2023-02-26T11:08:35.443Z,100118.66
2023-02-26T11:11:06.005Z,100141.41
2023-02-26T11:13:36.687Z,100130.53
2023-02-26T11:16:07.720Z,100139.31
2023-02-26T11:18:42.623Z,100147.69
2023-02-26T11:21:19.699Z,100146.88
2023-02-26T11:23:48.834Z,100146.28
2023-02-26T11:26:19.538Z,100162.28
2023-02-26T11:28:55.193Z,100153.31
2023-02-26T11:31:26.430Z,100153.63
2023-02-26T11:34:03.338Z,100153.84
2023-02-26T11:36:34.252Z,100150.28
2023-02-26T11:39:06.742Z,100148.59
2023-02-26T11:41:40.082Z,100172.91
2023-02-26T11:44:14.151Z,100173.34
2023-02-26T11:46:46.566Z,100169.97
2023-02-26T11:49:19.449Z,100175.66
2023-02-26T11:51:50.076Z,100179.31
2023-02-26T11:54:25.620Z,100191.53
2023-02-26T11:56:54.113Z,100185.28
2023-02-26T11:59:25.062Z,100178.56
2023-02-26T12:01:55.396Z,100175.41
2023-02-26T12:04:27.966Z,100181.69
2023-02-26T12:06:58.056Z,100181.19
2023-02-26T12:09:28.209Z,100203.91
2023-02-26T12:12:17.051Z,100203.03
2023-02-26T12:15:12.143Z,100204.81
2023-02-26T12:18:06.456Z,100198.75
2023-02-26T12:20:46.626Z,100197.22
2023-02-26T12:23:28.648Z,100200.38
2023-02-26T12:26:08.094Z,100202.06
2023-02-26T12:28:58.260Z,100205.41
2023-02-26T12:31:51.747Z,100209.84
2023-02-26T12:34:49.574Z,100208.00
2023-02-26T12:37:36.410Z,100214.63
2023-02-26T12:40:17.527Z,100215.66
2023-02-26T12:43:00.183Z,100212.19
2023-02-26T12:45:44.110Z,100229.16
2023-02-26T12:48:45.445Z,100221.72
2023-02-26T12:51:28.654Z,100226.63
2023-02-26T12:54:15.554Z,100222.03
2023-02-26T12:57:05.939Z,100219.69
2023-02-26T12:59:51.630Z,100224.06
2023-02-26T13:02:42.361Z,100230.41
2023-02-26T13:05:27.014Z,100235.22
2023-02-26T13:08:10.599Z,100232.69
2023-02-26T13:10:53.049Z,100233.69
2023-02-26T13:13:54.949Z,100240.63
2023-02-26T13:16:42.819Z,100234.47
2023-02-26T13:19:26.038Z,100234.31
2023-02-26T13:22:01.791Z,100240.88
2023-02-26T13:24:36.126Z,100224.28
2023-02-26T13:27:08.493Z,100244.13
2023-02-26T13:29:41.752Z,100246.03
2023-02-26T13:32:16.012Z,100230.97
2023-02-26T13:34:49.873Z,100246.81
2023-02-26T13:37:25.654Z,100250.31
2023-02-26T13:40:07.739Z,100251.50
2023-02-26T13:42:42.955Z,100246.50
2023-02-26T13:45:29.084Z,100246.97
2023-02-26T13:48:11.654Z,100266.88
2023-02-26T13:50:52.451Z,100284.47
2023-02-26T13:53:50.177Z,100290.00
2023-02-26T13:56:22.235Z,100292.28
2023-02-26T13:58:55.843Z,100302.88
2023-02-26T14:01:30.757Z,100302.88
2023-02-26T14:04:23.690Z,100308.78
2023-02-26T14:06:54.808Z,100297.41
2023-02-26T14:09:48.844Z,100306.72
2023-02-26T14:12:43.649Z,100299.19
2023-02-26T14:15:42.433Z,100298.81
2023-02-26T14:18:32.308Z,100306.03
2023-02-26T14:21:33.946Z,100302.81
2023-02-26T14:24:16.766Z,100292.94
2023-02-26T14:26:48.627Z,100300.13
2023-02-26T14:29:23.005Z,100302.72
2023-02-26T14:32:14.522Z,100305.00
2023-02-26T14:34:51.760Z,100307.94
2023-02-26T14:37:24.391Z,100312.66
2023-02-26T14:39:59.035Z,100313.06
2023-02-26T14:42:35.796Z,100318.94
2023-02-26T14:45:20.077Z,100305.53
2023-02-26T14:47:51.425Z,100322.69
2023-02-26T14:50:23.806Z,100318.81
2023-02-26T14:53:25.808Z,100333.78
2023-02-26T14:56:06.532Z,100329.19
2023-02-26T14:59:04.105Z,100322.78
2023-02-26T15:01:49.131Z,100335.59
2023-02-26T15:04:54.958Z,100338.28
2023-02-26T15:07:39.795Z,100339.41
2023-02-26T15:10:37.204Z,100345.84
2023-02-26T15:13:25.078Z,100355.16
2023-02-26T15:15:58.129Z,100360.75
2023-02-26T15:19:03.526Z,100363.19
2023-02-26T15:21:44.892Z,100372.50
2023-02-26T15:24:16.193Z,100363.25
2023-02-26T15:26:49.672Z,100367.50
2023-02-26T15:29:19.271Z,100374.09
2023-02-26T15:31:55.360Z,100378.78
2023-02-26T15:34:25.286Z,100380.22
2023-02-26T15:36:58.849Z,100373.41
2023-02-26T15:39:28.161Z,100375.97
2023-02-26T15:41:57.968Z,100388.84
2023-02-26T15:44:30.129Z,100384.94
2023-02-26T15:47:02.801Z,100398.88
2023-02-26T15:49:36.218Z,100397.88
2023-02-26T15:52:08.192Z,100396.41
2023-02-26T15:54:42.024Z,100396.41
2023-02-26T15:57:13.205Z,100393.91
2023-02-26T15:59:45.422Z,100392.50
2023-02-26T16:02:15.656Z,100419.88
2023-02-26T16:04:46.084Z,100412.78
2023-02-26T16:07:19.230Z,100412.03
2023-02-26T16:09:50.480Z,100413.22
2023-02-26T16:12:22.010Z,100429.44
2023-02-26T16:14:57.377Z,100416.56
2023-02-26T16:17:29.647Z,100439.47
2023-02-26T16:20:00.630Z,100437.59
2023-02-26T16:22:34.361Z,100447.13
2023-02-26T16:25:15.755Z,100457.84
2023-02-26T16:27:50.651Z,100454.84
2023-02-26T16:30:26.625Z,100451.13
2023-02-26T16:32:56.860Z,100454.97
2023-02-26T16:35:36.686Z,100474.47
2023-02-26T16:38:19.013Z,100473.16
2023-02-26T16:40:49.283Z,100482.41
2023-02-26T16:43:53.825Z,100484.84
2023-02-26T16:46:29.791Z,100498.47
2023-02-26T16:49:03.997Z,100495.00
2023-02-26T16:51:37.539Z,100491.75
2023-02-26T16:54:15.855Z,100498.19
2023-02-26T16:56:45.364Z,100502.47
2023-02-26T16:59:18.097Z,100514.44
2023-02-26T17:01:54.180Z,100509.38
2023-02-26T17:04:29.419Z,100507.16
2023-02-26T17:06:58.605Z,100524.06
2023-02-26T17:09:40.867Z,100511.44
2023-02-26T17:12:16.785Z,100525.47
2023-02-26T17:14:48.269Z,100518.53
2023-02-26T17:17:17.115Z,100520.91
2023-02-26T17:19:46.257Z,100526.75
2023-02-26T17:22:16.914Z,100522.47
2023-02-26T17:24:49.923Z,100510.69
2023-02-26T17:27:32.235Z,100522.25
2023-02-26T17:30:04.548Z,100538.31
2023-02-26T17:32:33.645Z,100539.19
2023-02-26T17:35:03.340Z,100532.53
2023-02-26T17:37:35.419Z,100538.31
2023-02-26T17:40:06.767Z,100540.00
2023-02-26T17:42:37.178Z,100544.22
2023-02-26T17:45:06.755Z,100543.38
2023-02-26T17:47:35.550Z,100540.38
2023-02-26T17:50:04.988Z,100551.50
2023-02-26T17:52:33.701Z,100557.38
2023-02-26T17:55:02.874Z,100555.88
2023-02-26T17:57:34.273Z,100567.81
2023-02-26T18:00:04.344Z,100568.94
2023-02-26T18:02:33.334Z,100562.78
2023-02-26T18:05:02.690Z,100565.69
2023-02-26T18:07:32.074Z,100578.34
2023-02-26T18:10:00.755Z,100577.44
2023-02-26T18:12:30.444Z,100572.28
2023-02-26T18:15:00.901Z,100576.69
2023-02-26T18:17:34.512Z,100580.88
2023-02-26T18:20:05.788Z,100586.03
2023-02-26T18:22:35.107Z,100594.97
2023-02-26T18:25:04.241Z,100592.88
2023-02-26T18:27:33.161Z,100592.38
2023-02-26T18:30:04.930Z,100594.25
2023-02-26T18:32:33.437Z,100591.56
2023-02-26T18:35:02.205Z,100593.25
2023-02-26T18:37:30.892Z,100609.16
2023-02-26T18:39:59.450Z,100598.81
2023-02-26T18:42:33.000Z,100607.84
2023-02-26T18:45:03.133Z,100607.94
2023-02-26T18:47:32.623Z,100607.41
2023-02-26T18:50:01.738Z,100613.56
2023-02-26T18:52:30.835Z,100618.50
2023-02-26T18:55:01.281Z,100626.63
2023-02-26T18:57:30.453Z,100634.06
2023-02-26T18:59:59.647Z,100637.41
2023-02-26T19:02:30.657Z,100639.28
2023-02-26T19:05:00.112Z,100646.94
2023-02-26T19:07:29.725Z,100648.03
2023-02-26T19:09:58.756Z,100647.00
2023-02-26T19:12:27.509Z,100654.59
2023-02-26T19:14:56.747Z,100664.72
2023-02-26T19:17:26.316Z,100664.72
2023-02-26T19:19:56.774Z,100669.00
2023-02-26T19:22:25.774Z,100674.13
2023-02-26T19:24:55.126Z,100682.84
2023-02-26T19:27:23.758Z,100681.22
2023-02-26T19:29:53.084Z,100677.50
2023-02-26T19:32:26.448Z,100671.13
2023-02-26T19:34:57.041Z,100679.72
2023-02-26T19:37:25.831Z,100686.78
2023-02-26T19:39:54.470Z,100680.13
2023-02-26T19:42:24.753Z,100693.88
2023-02-26T19:44:54.058Z,100684.75
2023-02-26T19:47:23.731Z,100694.22
2023-02-26T19:49:52.502Z,100702.03
2023-02-26T19:52:22.854Z,100702.22
2023-02-26T19:54:51.630Z,100707.44
2023-02-26T19:57:21.052Z,100706.56
2023-02-26T19:59:49.930Z,100717.03
2023-02-26T20:02:18.623Z,100718.81
2023-02-26T20:04:48.275Z,100715.44
2023-02-26T20:07:16.959Z,100726.72
2023-02-26T20:09:48.947Z,100721.59
2023-02-26T20:12:18.537Z,100724.38
2023-02-26T20:14:47.576Z,100727.91
2023-02-26T20:17:16.716Z,100734.81
2023-02-26T20:19:46.993Z,100738.53
2023-02-26T20:22:16.656Z,100742.97
2023-02-26T20:24:47.369Z,100745.59
2023-02-26T20:27:16.341Z,100754.34
2023-02-26T20:29:45.184Z,100752.66
2023-02-26T20:32:13.824Z,100739.00
2023-02-26T20:34:45.943Z,100751.31
2023-02-26T20:37:15.037Z,100747.00
2023-02-26T20:39:44.371Z,100752.84
2023-02-26T20:42:14.908Z,100763.28
2023-02-26T20:44:43.751Z,100757.19
2023-02-26T20:47:15.375Z,100761.91
2023-02-26T20:49:44.327Z,100762.84
2023-02-26T20:52:13.893Z,100760.47
2023-02-26T20:54:43.296Z,100764.91
2023-02-26T20:57:16.517Z,100762.41
2023-02-26T20:59:45.849Z,100767.78
2023-02-26T21:02:20.921Z,100762.56
2023-02-26T21:04:50.011Z,100770.63
2023-02-26T21:07:22.694Z,100758.22
2023-02-26T21:09:53.209Z,100758.53
2023-02-26T21:12:27.028Z,100778.22
2023-02-26T21:14:57.633Z,100765.06
2023-02-26T21:17:31.960Z,100778.22
2023-02-26T21:20:02.385Z,100772.00
2023-02-26T21:22:31.701Z,100774.91
2023-02-26T21:25:00.891Z,100775.19
2023-02-26T21:27:31.245Z,100791.16
2023-02-26T21:30:00.319Z,100785.94
2023-02-26T21:32:29.767Z,100791.66
2023-02-26T21:35:01.747Z,100789.91
2023-02-26T21:37:31.131Z,100797.75
2023-02-26T21:40:07.044Z,100802.66
2023-02-26T21:42:41.186Z,100803.13
2023-02-26T21:45:11.922Z,100809.88
2023-02-26T21:47:41.475Z,100806.19
2023-02-26T21:50:12.631Z,100805.94
2023-02-26T21:52:42.821Z,100807.50
2023-02-26T21:55:13.528Z,100816.19
2023-02-26T21:57:43.480Z,100804.97
2023-02-26T22:00:13.202Z,100812.47
2023-02-26T22:02:44.013Z,100823.59
2023-02-26T22:05:13.314Z,100815.88
2023-02-26T22:07:42.086Z,100811.47
2023-02-26T22:10:12.318Z,100820.00
2023-02-26T22:12:40.807Z,100837.97
2023-02-26T22:15:11.434Z,100820.84
2023-02-26T22:17:40.034Z,100835.34
2023-02-26T22:20:10.468Z,100842.56
2023-02-26T22:22:39.465Z,100833.97
2023-02-26T22:25:12.157Z,100843.41
2023-02-26T22:27:41.099Z,100844.94
2023-02-26T22:30:12.493Z,100845.78
2023-02-26T22:32:40.995Z,100854.72
2023-02-26T22:35:11.306Z,100853.94
2023-02-26T22:37:39.753Z,100854.78
2023-02-26T22:40:09.381Z,100858.09
2023-02-26T22:42:37.872Z,100863.31
2023-02-26T22:45:07.406Z,100862.28
2023-02-26T22:47:37.330Z,100865.00
2023-02-26T22:50:06.548Z,100867.66
2023-02-26T22:52:35.045Z,100858.31
2023-02-26T22:55:03.573Z,100867.91
2023-02-26T22:57:32.163Z,100868.06
2023-02-26T23:00:00.760Z,100851.41
2023-02-26T23:02:29.340Z,100866.44
2023-02-26T23:04:59.291Z,100869.91
2023-02-26T23:07:28.040Z,100879.19
2023-02-26T23:09:56.568Z,100875.81
2023-02-26T23:12:25.124Z,100874.06
2023-02-26T23:14:53.680Z,100887.19
2023-02-26T23:17:22.472Z,100873.50
2023-02-26T23:19:51.039Z,100886.81
2023-02-26T23:22:22.289Z,100882.88
2023-02-26T23:24:50.801Z,100885.72
2023-02-26T23:27:19.722Z,100893.72
2023-02-26T23:29:48.322Z,100893.91
2023-02-26T23:32:17.295Z,100893.09
2023-02-26T23:34:45.903Z,100902.03
2023-02-26T23:37:14.505Z,100896.22
2023-02-26T23:39:44.465Z,100899.59
2023-02-26T23:42:13.075Z,100903.78
2023-02-26T23:44:41.615Z,100907.31
2023-02-26T23:47:10.308Z,100904.81
2023-02-26T23:49:38.968Z,100907.31
2023-02-26T23:52:07.868Z,100901.03
2023-02-26T23:54:36.464Z,100900.00
2023-02-26T23:57:06.385Z,100906.91
2023-02-26T23:59:35.095Z,100903.94
